Time;durP1;ratioP1;P1;durP2;ratioP2;P2;SDS_P1;SDS_P2;PMS_P1;PMS_P2;Temp;Humidity;BMP_temperature;BMP_pressure;BME280_temperature;BME280_humidity;BME280_pressure;Samples;Min_cycle;Max_cycle;Signal;HPM_P1;HPM_P2
2021/12/23 00:02:04;;;;;;;38.40;23.30;;;;;;;-0.70;81.67;97117.25;5093287;28;20206;-71
2021/12/23 00:04:30;;;;;;;35.90;22.83;;;;;;;-0.70;80.38;97119.00;5076371;28;20202;-72
2021/12/23 00:06:56;;;;;;;35.00;23.27;;;;;;;-0.82;81.94;97109.97;5073477;28;20207;-74
2021/12/23 00:09:29;;;;;;;34.97;22.77;;;;;;;-0.87;82.47;97105.88;5080354;28;20224;-72
2021/12/23 00:11:55;;;;;;;33.67;22.10;;;;;;;-0.77;81.97;97108.03;5094076;28;20200;-75
2021/12/23 00:14:23;;;;;;;32.07;21.20;;;;;;;-0.67;81.03;97092.91;5082184;28;20214;-75
2021/12/23 00:17:06;;;;;;;34.00;22.67;;;;;;;-0.79;81.67;97094.28;5095079;28;20268;-76
2021/12/23 00:19:47;;;;;;;34.03;22.80;;;;;;;-0.86;81.60;97092.84;5091814;28;20219;-76
2021/12/23 00:24:57;;;;;;;35.10;22.80;;;;;;;-0.82;81.61;97088.38;5082564;28;20628;-75
2021/12/23 00:27:23;;;;;;;35.77;22.23;;;;;;;-0.88;81.28;97088.59;5091780;28;20529;-74
2021/12/23 00:29:51;;;;;;;33.53;22.97;;;;;;;-0.95;82.63;97100.13;5091347;28;20202;-73
2021/12/23 00:32:17;;;;;;;35.33;22.47;;;;;;;-0.99;82.80;97096.00;5079651;28;20207;-73
2021/12/23 00:34:44;;;;;;;32.47;21.97;;;;;;;-0.98;83.03;97095.91;5090447;28;20202;-74
2021/12/23 00:37:12;;;;;;;35.03;22.50;;;;;;;-0.97;82.05;97094.16;5091382;28;20206;-74
2021/12/23 00:39:38;;;;;;;32.30;21.70;;;;;;;-0.90;81.58;97090.41;5091118;28;20240;-74
2021/12/23 00:42:08;;;;;;;32.67;21.03;;;;;;;-0.86;81.11;97092.84;5091340;28;20213;-73
2021/12/23 00:44:36;;;;;;;34.70;22.33;;;;;;;-1.13;81.46;97088.75;5080686;28;20231;-74
2021/12/23 00:47:04;;;;;;;33.67;21.33;;;;;;;-1.18;83.75;97094.13;5061425;28;20199;-74
2021/12/23 00:49:31;;;;;;;34.97;20.63;;;;;;;-1.15;83.13;97096.59;5076553;28;20199;-73
2021/12/23 00:51:58;;;;;;;32.47;21.40;;;;;;;-1.07;81.70;97091.97;5090001;28;20213;-74
2021/12/23 00:54:24;;;;;;;33.33;20.93;;;;;;;-0.98;81.46;97089.88;5074627;28;20230;-73
2021/12/23 00:56:51;;;;;;;34.50;22.00;;;;;;;-1.12;82.63;97095.63;5074568;28;20225;-73
2021/12/23 00:59:18;;;;;;;31.10;21.00;;;;;;;-1.12;83.08;97093.88;5069758;28;20203;-72
2021/12/23 01:01:46;;;;;;;36.40;21.53;;;;;;;-1.14;83.42;97092.25;5085371;28;20204;-72
2021/12/23 01:04:14;;;;;;;32.73;21.07;;;;;;;-1.16;82.82;97081.94;5075918;28;20203;-74
2021/12/23 01:06:41;;;;;;;33.30;21.70;;;;;;;-1.27;82.56;97080.66;5065403;28;20202;-73
2021/12/23 01:09:07;;;;;;;32.77;21.47;;;;;;;-1.27;83.10;97083.25;5073341;28;20207;-72
2021/12/23 01:11:34;;;;;;;35.23;22.33;;;;;;;-1.24;81.95;97076.19;5079821;28;20203;-73
2021/12/23 01:14:03;;;;;;;32.07;21.13;;;;;;;-1.18;82.31;97075.13;5076241;28;20223;-72
2021/12/23 01:16:48;;;;;;;33.73;22.37;;;;;;;-1.30;82.96;97071.25;5077332;28;20302;-74
2021/12/23 01:19:17;;;;;;;31.90;21.07;;;;;;;-1.18;83.45;97078.56;5078148;28;20212;-73
2021/12/23 01:21:44;;;;;;;33.17;21.47;;;;;;;-1.25;84.05;97074.53;5067029;28;20254;-73
2021/12/23 01:24:11;;;;;;;32.73;21.30;;;;;;;-1.28;84.45;97085.03;5060630;28;20215;-74
2021/12/23 01:26:38;;;;;;;30.90;20.73;;;;;;;-1.39;83.78;97076.81;5059053;28;20207;-74
2021/12/23 01:29:05;;;;;;;34.77;21.93;;;;;;;-1.37;83.51;97082.78;5077370;28;20230;-74
2021/12/23 01:31:33;;;;;;;33.67;22.13;;;;;;;-1.40;84.86;97085.50;5067526;28;20199;-73
2021/12/23 01:34:00;;;;;;;33.90;22.13;;;;;;;-1.32;84.49;97095.59;5058788;28;20317;-71
2021/12/23 01:36:28;;;;;;;32.40;21.43;;;;;;;-1.39;84.76;97094.13;5069296;28;20285;-71
2021/12/23 01:38:55;;;;;;;32.93;21.47;;;;;;;-1.49;83.69;97096.25;5077144;28;20222;-72
2021/12/23 01:41:23;;;;;;;32.33;21.30;;;;;;;-1.42;84.92;97092.50;5076931;28;20256;-72
2021/12/23 01:43:50;;;;;;;34.43;22.43;;;;;;;-1.44;85.03;97089.13;5072566;28;20217;-73
2021/12/23 01:46:17;;;;;;;32.57;22.23;;;;;;;-1.33;84.46;97086.94;5067730;28;20213;-73
2021/12/23 01:48:43;;;;;;;31.43;20.87;;;;;;;-1.36;84.33;97081.88;5063903;28;20216;-72
2021/12/23 01:51:10;;;;;;;33.37;21.33;;;;;;;-1.31;83.79;97069.56;5077343;28;20214;-74
2021/12/23 01:53:38;;;;;;;30.80;20.60;;;;;;;-1.35;83.84;97082.72;5077813;28;20284;-74
2021/12/23 01:56:05;;;;;;;31.40;21.00;;;;;;;-1.39;84.74;97081.16;5073016;28;20207;-72
2021/12/23 01:58:32;;;;;;;33.47;21.60;;;;;;;-1.38;84.20;97072.50;5076900;28;20221;-73
2021/12/23 02:00:58;;;;;;;33.03;19.53;;;;;;;-1.35;84.41;97068.03;5060432;28;20241;-71
2021/12/23 02:03:25;;;;;;;31.40;20.87;;;;;;;-1.33;83.93;97071.38;5079390;28;20213;-72
2021/12/23 02:05:52;;;;;;;34.73;20.80;;;;;;;-1.40;83.83;97066.50;5061646;28;20204;-71
2021/12/23 02:08:18;;;;;;;32.93;21.70;;;;;;;-1.48;84.54;97066.78;5063859;28;20210;-74
2021/12/23 02:10:46;;;;;;;32.60;20.77;;;;;;;-1.53;85.83;97064.41;5076074;28;20630;-73
2021/12/23 02:13:13;;;;;;;31.77;20.87;;;;;;;-1.49;84.49;97059.94;5076562;28;20221;-73
2021/12/23 02:15:39;;;;;;;31.63;22.10;;;;;;;-1.59;84.42;97058.56;5063525;28;20281;-72
2021/12/23 02:18:06;;;;;;;32.20;21.20;;;;;;;-1.58;84.69;97050.75;5064031;28;20202;-72
2021/12/23 02:20:35;;;;;;;32.67;21.03;;;;;;;-1.62;85.39;97054.38;5076475;28;20237;-72
2021/12/23 02:23:02;;;;;;;31.63;20.87;;;;;;;-1.63;85.06;97057.84;5067909;28;20222;-71
2021/12/23 02:25:29;;;;;;;30.43;20.27;;;;;;;-1.63;85.70;97054.44;5059147;28;20218;-72
2021/12/23 02:27:57;;;;;;;31.00;21.20;;;;;;;-1.65;85.11;97058.81;5076291;28;20252;-72
2021/12/23 02:30:26;;;;;;;32.40;20.57;;;;;;;-1.68;84.83;97045.97;5074434;28;20207;-74
2021/12/23 02:32:53;;;;;;;34.10;20.43;;;;;;;-1.70;85.16;97034.84;5055943;28;20210;-72
2021/12/23 02:35:21;;;;;;;29.13;18.90;;;;;;;-1.61;85.40;97024.09;5061940;28;20633;-74
2021/12/23 02:37:49;;;;;;;29.53;19.17;;;;;;;-1.62;85.37;97019.81;5073705;28;20210;-73
2021/12/23 02:40:25;;;;;;;30.77;19.93;;;;;;;-1.71;84.47;97022.78;5075495;28;20238;-72
2021/12/23 02:42:52;;;;;;;32.40;20.83;;;;;;;-1.67;84.14;97019.16;5078103;28;20214;-73
2021/12/23 02:45:18;;;;;;;33.00;20.37;;;;;;;-1.69;85.14;97018.38;5063027;28;20208;-74
2021/12/23 02:47:45;;;;;;;30.93;19.73;;;;;;;-1.72;84.89;97010.72;5064219;28;20215;-72
2021/12/23 02:50:11;;;;;;;32.87;20.33;;;;;;;-1.68;85.18;97002.75;5074492;28;20211;-72
2021/12/23 02:52:38;;;;;;;30.60;20.80;;;;;;;-1.58;84.07;97003.22;5076031;28;20216;-73
2021/12/23 02:55:06;;;;;;;34.57;20.67;;;;;;;-1.57;84.25;96992.81;5071962;28;20203;-72
2021/12/23 02:57:33;;;;;;;31.93;21.00;;;;;;;-1.57;85.25;96991.97;5075893;28;20241;-72
2021/12/23 03:00:00;;;;;;;32.93;19.83;;;;;;;-1.63;84.98;96980.06;5067158;28;20214;-75
2021/12/23 03:02:27;;;;;;;27.43;19.27;;;;;;;-1.56;85.41;96970.31;5074789;28;20207;-72
2021/12/23 03:04:53;;;;;;;29.97;20.40;;;;;;;-1.61;84.45;96974.84;5064274;28;20648;-72
2021/12/23 03:07:20;;;;;;;28.47;19.33;;;;;;;-1.60;85.87;96973.94;5055818;28;20218;-72
2021/12/23 03:09:46;;;;;;;30.37;20.43;;;;;;;-1.61;85.57;96973.09;5069456;28;20206;-71
2021/12/23 03:12:14;;;;;;;30.83;19.53;;;;;;;-1.57;85.39;96979.00;5068322;28;20580;-73
2021/12/23 03:14:41;;;;;;;31.10;19.97;;;;;;;-1.52;85.45;96977.03;5062252;28;20648;-71
2021/12/23 03:17:07;;;;;;;34.77;21.53;;;;;;;-1.56;85.03;96967.72;5075867;28;20210;-72
2021/12/23 03:19:34;;;;;;;29.20;18.87;;;;;;;-1.47;85.08;96958.72;5090325;28;20217;-72
2021/12/23 03:22:00;;;;;;;30.27;20.10;;;;;;;-1.46;83.94;96944.84;5089487;28;20226;-73
2021/12/23 03:24:27;;;;;;;29.93;19.93;;;;;;;-1.45;84.63;96946.53;5080440;28;20283;-72
2021/12/23 03:26:53;;;;;;;31.13;20.03;;;;;;;-1.53;85.42;96944.25;5064301;28;20203;-71
2021/12/23 03:29:21;;;;;;;28.63;19.50;;;;;;;-1.57;85.20;96947.88;5066770;28;20576;-73
2021/12/23 03:31:48;;;;;;;29.70;19.10;;;;;;;-1.54;85.31;96939.97;5065889;28;20215;-73
2021/12/23 03:34:14;;;;;;;31.03;19.77;;;;;;;-1.57;84.76;96937.50;5075437;28;20198;-71
2021/12/23 03:36:41;;;;;;;31.87;19.90;;;;;;;-1.54;85.36;96950.34;5074768;28;20215;-71
2021/12/23 03:39:07;;;;;;;32.17;20.03;;;;;;;-1.57;85.42;96940.09;5075000;28;20263;-72
2021/12/23 03:41:34;;;;;;;29.67;19.33;;;;;;;-1.56;85.33;96934.03;5074974;28;20225;-72
2021/12/23 03:44:00;;;;;;;29.87;19.87;;;;;;;-1.57;85.41;96932.31;5068129;28;20201;-71
2021/12/23 03:46:28;;;;;;;32.77;19.77;;;;;;;-1.52;86.09;96927.78;5055077;28;20217;-72
2021/12/23 03:48:54;;;;;;;26.77;19.33;;;;;;;-1.53;85.10;96939.06;5063132;28;20214;-73
2021/12/23 03:51:22;;;;;;;29.13;19.17;;;;;;;-1.52;85.83;96936.41;5074623;28;20198;-73
2021/12/23 03:53:49;;;;;;;30.80;20.00;;;;;;;-1.58;85.62;96944.44;5070318;28;20207;-73
2021/12/23 03:56:18;;;;;;;29.10;19.67;;;;;;;-1.45;85.80;96942.19;5069439;28;20210;-72
2021/12/23 03:58:45;;;;;;;27.57;18.73;;;;;;;-1.36;85.44;96931.44;5074888;28;20206;-74
2021/12/23 04:01:11;;;;;;;29.40;19.47;;;;;;;-1.38;84.96;96930.63;5074453;28;20244;-71
2021/12/23 04:03:39;;;;;;;29.40;18.67;;;;;;;-1.43;85.15;96932.59;5072199;28;20210;-73
2021/12/23 04:06:05;;;;;;;26.83;18.93;;;;;;;-1.53;83.83;96931.28;5057860;28;20226;-73
2021/12/23 04:08:32;;;;;;;28.10;19.60;;;;;;;-1.45;84.99;96912.84;5063355;28;20221;-73
2021/12/23 04:10:59;;;;;;;28.27;19.07;;;;;;;-1.43;84.55;96903.22;5074843;28;20224;-72
2021/12/23 04:13:26;;;;;;;31.27;19.30;;;;;;;-1.48;84.79;96900.81;5063321;28;20209;-73
2021/12/23 04:15:52;;;;;;;31.07;20.10;;;;;;;-1.58;85.33;96907.28;5068095;28;20633;-72
2021/12/23 04:18:19;;;;;;;28.83;19.07;;;;;;;-1.66;85.56;96906.75;5063829;28;20225;-70
2021/12/23 04:20:53;;;;;;;27.97;18.93;;;;;;;-1.62;85.42;96910.91;5074202;28;20238;-73
2021/12/23 04:23:20;;;;;;;28.47;18.80;;;;;;;-1.64;85.76;96898.03;5064707;28;20228;-72
2021/12/23 04:25:46;;;;;;;30.40;19.00;;;;;;;-1.48;85.20;96900.81;5067781;28;20203;-74
2021/12/23 04:28:13;;;;;;;28.90;19.33;;;;;;;-1.56;84.60;96898.53;5058478;28;20203;-73
2021/12/23 04:30:39;;;;;;;28.60;18.13;;;;;;;-1.59;85.23;96903.00;5071886;28;20203;-74
2021/12/23 04:33:06;;;;;;;27.53;18.50;;;;;;;-1.64;85.18;96892.84;5058501;28;20272;-71
2021/12/23 04:35:33;;;;;;;28.23;18.50;;;;;;;-1.70;85.82;96884.47;5061529;28;20216;-72
2021/12/23 04:38:00;;;;;;;26.10;18.33;;;;;;;-1.75;84.92;96876.88;5078566;28;20233;-72
2021/12/23 04:40:30;;;;;;;26.43;17.63;;;;;;;-1.78;86.62;96870.97;5073579;28;20235;-71
2021/12/23 04:42:56;;;;;;;27.07;17.63;;;;;;;-1.78;86.89;96863.19;5058040;28;20557;-72
2021/12/23 04:45:23;;;;;;;27.80;18.20;;;;;;;-1.76;86.26;96869.16;5063702;28;20207;-71
2021/12/23 04:47:50;;;;;;;27.43;17.53;;;;;;;-1.72;85.51;96866.38;5065494;28;20643;-72
2021/12/23 04:50:16;;;;;;;28.83;18.13;;;;;;;-1.72;85.67;96868.97;5059160;28;20203;-72
2021/12/23 04:52:44;;;;;;;30.23;19.57;;;;;;;-1.74;84.55;96873.41;5078242;28;20272;-73
2021/12/23 04:55:13;;;;;;;27.93;18.77;;;;;;;-1.83;86.45;96867.72;5068538;28;20229;-74
2021/12/23 04:57:40;;;;;;;32.43;19.90;;;;;;;-1.84;86.17;96866.88;5074104;28;20213;-72
2021/12/23 05:00:09;;;;;;;30.33;20.07;;;;;;;-1.86;86.32;96865.25;5059789;28;20202;-73
2021/12/23 05:02:35;;;;;;;33.20;20.43;;;;;;;-1.83;86.29;96865.13;5077758;28;20229;-72
2021/12/23 05:05:02;;;;;;;31.23;20.70;;;;;;;-1.87;87.35;96869.59;5066801;28;20511;-72
2021/12/23 05:07:28;;;;;;;32.53;20.13;;;;;;;-1.93;85.84;96871.59;5071618;28;20218;-72
2021/12/23 05:09:54;;;;;;;28.07;18.83;;;;;;;-1.86;86.06;96873.03;5078458;28;20211;-73
2021/12/23 05:12:22;;;;;;;29.00;19.10;;;;;;;-1.89;86.84;96863.66;5078268;28;20234;-72
2021/12/23 05:14:49;;;;;;;27.90;19.87;;;;;;;-1.84;86.18;96866.06;5076721;28;20202;-72
2021/12/23 05:17:15;;;;;;;30.43;19.37;;;;;;;-1.95;86.10;96871.69;5078025;28;20218;-73
2021/12/23 05:19:42;;;;;;;31.70;19.27;;;;;;;-1.99;86.53;96877.03;5078162;28;20547;-73
2021/12/23 05:22:09;;;;;;;29.27;18.53;;;;;;;-2.07;87.00;96885.09;5063280;28;20238;-71
2021/12/23 05:24:35;;;;;;;29.33;19.83;;;;;;;-2.12;86.73;96876.66;5059816;28;20218;-71
2021/12/23 05:27:01;;;;;;;29.20;19.50;;;;;;;-1.95;86.82;96876.00;5073570;28;20215;-72
2021/12/23 05:29:29;;;;;;;30.50;19.60;;;;;;;-2.05;86.77;96873.78;5077892;28;20586;-72
2021/12/23 05:31:56;;;;;;;31.03;19.10;;;;;;;-2.12;85.85;96874.91;5063890;28;20203;-73
2021/12/23 05:34:22;;;;;;;29.17;19.57;;;;;;;-2.10;87.77;96875.72;5062139;28;20252;-72
2021/12/23 05:36:49;;;;;;;32.60;21.10;;;;;;;-2.13;86.76;96877.59;5073837;28;20615;-72
2021/12/23 05:39:15;;;;;;;29.93;19.77;;;;;;;-2.16;87.23;96875.94;5079195;28;20222;-71
2021/12/23 05:41:42;;;;;;;34.17;20.40;;;;;;;-2.14;86.26;96878.47;5080729;28;20248;-71
2021/12/23 05:44:09;;;;;;;26.80;19.13;;;;;;;-2.20;86.61;96882.16;5071787;28;20205;-71
2021/12/23 05:46:37;;;;;;;30.43;19.30;;;;;;;-2.24;87.27;96875.44;5081699;28;20221;-73
2021/12/23 05:49:04;;;;;;;30.40;20.23;;;;;;;-2.26;87.85;96879.81;5074644;28;20207;-71
2021/12/23 05:51:30;;;;;;;30.77;19.97;;;;;;;-2.16;86.85;96875.94;5068638;28;20199;-71
2021/12/23 05:53:57;;;;;;;32.33;20.83;;;;;;;-2.24;88.04;96880.59;5063107;28;20220;-72
2021/12/23 05:56:23;;;;;;;33.40;20.87;;;;;;;-2.29;87.74;96882.50;5073396;28;20213;-72
2021/12/23 05:58:50;;;;;;;33.20;19.90;;;;;;;-2.23;87.83;96879.69;5075271;28;20208;-73
2021/12/23 06:01:16;;;;;;;28.30;18.70;;;;;;;-2.25;87.49;96880.66;5080077;28;20237;-73
2021/12/23 06:03:46;;;;;;;32.70;19.93;;;;;;;-2.24;88.17;96872.84;5074072;28;20533;-73
2021/12/23 06:06:13;;;;;;;33.07;21.50;;;;;;;-2.26;88.08;96869.44;5058306;28;20294;-73
2021/12/23 06:08:40;;;;;;;34.87;20.93;;;;;;;-2.32;88.52;96869.69;5067426;28;20211;-72
2021/12/23 06:11:07;;;;;;;33.77;20.63;;;;;;;-2.28;87.39;96866.09;5076789;28;20289;-73
2021/12/23 06:13:33;;;;;;;34.67;21.33;;;;;;;-2.32;87.69;96869.69;5077060;28;20206;-73
2021/12/23 06:16:00;;;;;;;35.53;22.13;;;;;;;-2.33;87.18;96867.16;5064848;28;20206;-73
2021/12/23 06:18:26;;;;;;;30.93;20.33;;;;;;;-2.30;87.54;96860.09;5076034;28;20206;-73
2021/12/23 06:20:54;;;;;;;33.83;21.47;;;;;;;-2.23;87.91;96852.97;5076246;28;20532;-73
2021/12/23 06:23:20;;;;;;;32.17;20.27;;;;;;;-2.26;88.32;96853.91;5076050;28;20684;-73
2021/12/23 06:25:47;;;;;;;30.87;20.40;;;;;;;-2.26;88.22;96858.22;5066556;28;20214;-72
2021/12/23 06:28:13;;;;;;;36.23;21.87;;;;;;;-2.27;87.80;96862.59;5076106;28;20275;-73
2021/12/23 06:30:40;;;;;;;36.07;20.77;;;;;;;-2.25;87.62;96870.28;5071576;28;20207;-73
2021/12/23 06:33:06;;;;;;;35.53;21.07;;;;;;;-2.35;88.02;96864.63;5066887;28;20288;-69
2021/12/23 06:35:33;;;;;;;35.77;21.17;;;;;;;-2.25;88.09;96865.97;5069723;28;20206;-72
2021/12/23 06:38:04;;;;;;;31.63;20.77;;;;;;;-2.15;86.99;96872.47;5076287;28;20540;-71
2021/12/23 06:40:30;;;;;;;35.10;21.10;;;;;;;-2.19;87.02;96864.84;5076446;28;20254;-73
2021/12/23 06:42:57;;;;;;;35.37;20.90;;;;;;;-2.25;87.54;96867.69;5076931;28;20226;-72
2021/12/23 06:45:23;;;;;;;33.70;21.70;;;;;;;-2.26;87.54;96856.50;5063428;28;20214;-72
2021/12/23 06:47:50;;;;;;;32.87;20.60;;;;;;;-2.28;88.02;96867.81;5063274;28;20210;-72
2021/12/23 06:50:18;;;;;;;33.77;21.63;;;;;;;-2.30;88.21;96862.69;5074987;28;20202;-72
2021/12/23 06:52:46;;;;;;;33.47;21.03;;;;;;;-2.24;88.39;96857.28;5077902;28;20198;-72
2021/12/23 06:55:14;;;;;;;34.27;22.03;;;;;;;-2.20;88.84;96858.00;5065829;28;20649;-74
2021/12/23 06:57:42;;;;;;;36.77;23.43;;;;;;;-2.10;87.39;96849.81;5079554;28;20213;-73
2021/12/23 07:00:13;;;;;;;33.33;20.73;;;;;;;-2.09;87.56;96859.25;5073843;28;20206;-71
2021/12/23 07:02:40;;;;;;;35.00;21.60;;;;;;;-2.14;87.83;96863.78;5066424;28;20572;-71
2021/12/23 07:05:08;;;;;;;34.43;21.37;;;;;;;-2.11;88.04;96868.84;5068334;28;20199;-74
2021/12/23 07:07:42;;;;;;;34.03;21.70;;;;;;;-2.14;87.16;96863.78;5069876;28;20218;-73
2021/12/23 07:10:10;;;;;;;34.03;21.17;;;;;;;-2.15;89.16;96861.25;5067377;28;20203;-72
2021/12/23 07:12:37;;;;;;;33.67;21.20;;;;;;;-2.13;89.18;96860.31;5072184;28;20214;-73
2021/12/23 07:15:05;;;;;;;36.43;20.80;;;;;;;-2.06;89.51;96851.38;5071041;28;20215;-72
2021/12/23 07:17:31;;;;;;;31.70;20.70;;;;;;;-1.98;89.14;96852.81;5071355;28;20550;-73
2021/12/23 07:19:58;;;;;;;34.83;21.73;;;;;;;-1.96;88.75;96857.03;5075135;28;20212;-74
2021/12/23 07:22:24;;;;;;;32.90;21.80;;;;;;;-1.94;87.90;96857.78;5075099;28;20316;-72
2021/12/23 07:24:51;;;;;;;32.23;20.27;;;;;;;-1.84;88.28;96851.31;5074183;28;20289;-72
2021/12/23 07:27:17;;;;;;;28.67;19.60;;;;;;;-1.83;88.22;96862.53;5071907;28;20642;-72
2021/12/23 07:29:45;;;;;;;34.33;21.37;;;;;;;-1.77;88.09;96864.91;5076434;28;20271;-73
2021/12/23 07:32:11;;;;;;;32.03;19.47;;;;;;;-1.81;88.38;96876.28;5063162;28;20213;-72
2021/12/23 07:34:39;;;;;;;34.93;21.63;;;;;;;-1.84;88.11;96886.78;5076746;28;20536;-74
2021/12/23 07:37:05;;;;;;;30.13;18.73;;;;;;;-1.76;88.02;96889.91;5073819;28;20206;-74
2021/12/23 07:39:32;;;;;;;35.07;20.67;;;;;;;-1.77;88.40;96894.22;5069921;28;20264;-71
2021/12/23 07:41:58;;;;;;;31.10;20.93;;;;;;;-1.74;87.57;96891.53;5076808;28;20224;-71
2021/12/23 07:44:25;;;;;;;29.20;19.03;;;;;;;-1.76;87.74;96879.53;5070834;28;20203;-72
2021/12/23 07:46:53;;;;;;;33.77;21.20;;;;;;;-1.68;89.26;96882.66;5059890;28;20207;-72
2021/12/23 07:49:20;;;;;;;36.47;21.07;;;;;;;-1.59;89.41;96884.84;5070258;28;20218;-70
2021/12/23 07:51:47;;;;;;;33.43;22.23;;;;;;;-1.56;88.80;96887.34;5081295;28;20213;-71
2021/12/23 07:54:13;;;;;;;34.57;20.87;;;;;;;-1.54;89.76;96890.69;5079869;28;20206;-71
2021/12/23 07:56:40;;;;;;;32.83;21.37;;;;;;;-1.47;88.75;96893.88;5074984;28;20221;-72
2021/12/23 07:59:06;;;;;;;33.70;21.13;;;;;;;-1.42;88.71;96900.56;5082360;28;20590;-73
2021/12/23 08:01:33;;;;;;;32.13;20.83;;;;;;;-1.33;88.25;96891.53;5070514;28;20206;-72
2021/12/23 08:04:01;;;;;;;33.00;21.03;;;;;;;-1.44;87.49;96881.63;5066461;28;20205;-72
2021/12/23 08:06:27;;;;;;;34.57;21.47;;;;;;;-1.33;88.92;96879.41;5062385;28;20207;-74
2021/12/23 08:08:54;;;;;;;33.13;20.97;;;;;;;-1.27;88.68;96878.31;5073794;28;20304;-72
2021/12/23 08:11:20;;;;;;;32.40;21.27;;;;;;;-1.21;88.75;96871.13;5081588;28;20248;-73
2021/12/23 08:13:47;;;;;;;33.40;21.23;;;;;;;-1.11;88.50;96869.81;5070605;28;20210;-71
2021/12/23 08:16:13;;;;;;;35.83;22.97;;;;;;;-1.09;87.53;96869.72;5066232;28;20588;-72
2021/12/23 08:18:40;;;;;;;34.00;21.53;;;;;;;-0.98;87.84;96874.44;5080310;28;20516;-72
2021/12/23 08:21:08;;;;;;;33.67;22.20;;;;;;;-0.92;88.03;96879.41;5079610;28;20202;-74
2021/12/23 08:23:35;;;;;;;33.50;22.47;;;;;;;-0.88;87.28;96880.91;5073146;28;20228;-71
2021/12/23 08:26:04;;;;;;;37.10;22.70;;;;;;;-0.72;87.68;96887.97;5061905;28;20200;-72
2021/12/23 08:28:31;;;;;;;36.20;22.67;;;;;;;-0.68;86.42;96884.34;5072603;28;20539;-72
2021/12/23 08:30:58;;;;;;;35.37;23.37;;;;;;;-0.66;86.52;96886.84;5075855;28;20201;-73
2021/12/23 08:33:24;;;;;;;39.80;22.90;;;;;;;-0.42;86.11;96875.31;5062085;28;20202;-70
2021/12/23 08:35:52;;;;;;;36.33;22.87;;;;;;;-0.36;85.59;96862.06;5073664;28;20207;-71
2021/12/23 08:38:20;;;;;;;34.43;22.67;;;;;;;-0.26;85.85;96859.88;5063837;28;20211;-69
2021/12/23 08:40:46;;;;;;;37.87;23.33;;;;;;;-0.17;85.53;96860.28;5081178;28;20238;-71
2021/12/23 08:43:13;;;;;;;36.53;23.27;;;;;;;-0.15;84.83;96862.81;5071803;28;20220;-69
2021/12/23 08:45:40;;;;;;;37.63;23.53;;;;;;;-0.18;85.49;96868.97;5059056;28;20483;-72
2021/12/23 08:48:07;;;;;;;35.47;23.67;;;;;;;-0.12;84.25;96862.66;5060181;28;20203;-74
2021/12/23 08:50:33;;;;;;;33.70;22.67;;;;;;;0.03;85.43;96863.69;5075936;28;20208;-75
2021/12/23 08:53:02;;;;;;;34.87;22.17;;;;;;;0.00;83.42;96852.50;5073572;28;20204;-74
2021/12/23 08:55:31;;;;;;;36.30;23.27;;;;;;;0.12;83.07;96848.47;5078474;28;20531;-73
2021/12/23 08:57:59;;;;;;;35.77;23.07;;;;;;;0.32;82.82;96852.72;5078258;28;20248;-74
2021/12/23 09:00:26;;;;;;;34.43;23.13;;;;;;;0.59;81.88;96847.88;5069456;28;20204;-73
2021/12/23 09:02:53;;;;;;;34.57;23.37;;;;;;;0.76;80.60;96847.88;5075519;28;20315;-72
2021/12/23 09:05:20;;;;;;;34.83;23.23;;;;;;;0.99;79.20;96847.53;5072723;28;20206;-73
2021/12/23 09:07:47;;;;;;;33.57;22.23;;;;;;;1.42;77.89;96844.31;5073933;28;20535;-75
2021/12/23 09:10:13;;;;;;;32.00;21.70;;;;;;;1.88;75.21;96860.91;5078329;28;20579;-74
2021/12/23 09:12:41;;;;;;;30.63;21.53;;;;;;;2.09;75.27;96855.44;5063818;28;20413;-72
2021/12/23 09:15:09;;;;;;;30.33;21.50;;;;;;;2.37;73.10;96845.91;5078015;28;20545;-72
2021/12/23 09:17:36;;;;;;;30.93;21.90;;;;;;;2.56;73.10;96860.50;5074218;28;20211;-74
2021/12/23 09:20:04;;;;;;;29.47;21.40;;;;;;;2.84;71.99;96860.56;5067428;28;20206;-73
2021/12/23 09:22:30;;;;;;;29.20;19.63;;;;;;;2.66;72.13;96852.06;5066779;28;20229;-72
2021/12/23 09:25:02;;;;;;;27.27;20.60;;;;;;;2.89;70.82;96867.22;5077327;28;20840;-72
2021/12/23 09:27:35;;;;;;;28.50;20.80;;;;;;;2.54;71.61;96862.38;5077444;28;20661;-73
2021/12/23 09:32:56;;;;;;;27.43;20.63;;;;;;;3.00;70.13;96861.38;5061377;28;20206;-72
2021/12/23 09:35:24;;;;;;;27.20;20.33;;;;;;;3.13;70.21;96853.63;5077183;28;20638;-74
2021/12/23 09:37:52;;;;;;;29.13;20.27;;;;;;;3.13;69.48;96846.63;5077084;28;20221;-72
2021/12/23 09:40:19;;;;;;;26.17;19.30;;;;;;;3.34;69.22;96849.69;5076934;28;20245;-72
2021/12/23 09:42:47;;;;;;;27.10;19.17;;;;;;;3.38;68.87;96856.44;5071874;28;20222;-73
2021/12/23 09:45:17;;;;;;;28.87;20.80;;;;;;;3.26;67.55;96844.94;5060826;28;20207;-72
2021/12/23 09:47:46;;;;;;;29.10;19.83;;;;;;;3.56;68.42;96850.06;5057382;28;20658;-74
2021/12/23 09:50:14;;;;;;;29.40;19.93;;;;;;;3.98;67.34;96841.28;5076433;28;20225;-72
2021/12/23 09:52:43;;;;;;;29.30;21.07;;;;;;;4.55;64.39;96841.91;5074273;28;20626;-73
2021/12/23 09:55:10;;;;;;;25.47;20.03;;;;;;;4.40;64.89;96835.03;5077048;28;20626;-72
2021/12/23 09:57:37;;;;;;;27.87;20.40;;;;;;;4.55;62.93;96836.66;5064154;28;20203;-73
2021/12/23 10:00:05;;;;;;;24.80;19.80;;;;;;;4.84;62.85;96840.81;5062081;28;20199;-74
2021/12/23 10:02:33;;;;;;;27.30;21.20;;;;;;;4.85;62.56;96831.97;5056179;28;20226;-72
2021/12/23 10:04:59;;;;;;;23.80;19.00;;;;;;;5.84;59.56;96828.56;5044040;28;20233;-71
2021/12/23 10:07:26;;;;;;;24.60;18.87;;;;;;;5.91;59.85;96806.19;5056767;28;20203;-72
2021/12/23 10:10:01;;;;;;;23.87;19.00;;;;;;;5.94;59.43;96813.84;5051264;28;20295;-72
2021/12/23 10:32:14;;;;;;;22.13;18.37;;;;;;;6.63;58.10;96788.56;5025746;28;20257;-73
2021/12/23 10:37:26;;;;;;;20.77;17.80;;;;;;;6.35;59.73;96767.94;5075067;28;20201;-72
2021/12/23 10:39:55;;;;;;;23.70;18.30;;;;;;;6.34;59.73;96766.28;5077021;28;20564;-74
2021/12/23 10:42:24;;;;;;;22.13;18.10;;;;;;;5.98;60.62;96748.84;5069287;28;20210;-72
2021/12/23 10:44:51;;;;;;;19.97;16.97;;;;;;;6.17;60.44;96749.16;5064482;28;20207;-72
2021/12/23 10:47:38;;;;;;;21.97;17.33;;;;;;;6.21;59.64;96747.13;5057253;28;20584;-74
2021/12/23 10:50:19;;;;;;;21.13;16.90;;;;;;;6.50;59.08;96745.78;5074867;28;20206;-73
2021/12/23 10:52:50;;;;;;;20.93;17.73;;;;;;;6.31;59.57;96737.59;5056129;28;20533;-71
2021/12/23 10:58:08;;;;;;;19.90;15.90;;;;;;;6.30;59.91;96733.34;5072734;28;20359;-72
2021/12/23 11:00:37;;;;;;;20.93;16.70;;;;;;;6.08;61.12;96723.59;5066692;28;20645;-70
2021/12/23 11:03:09;;;;;;;21.87;15.33;;;;;;;5.96;60.23;96720.06;5073173;28;20748;-71
2021/12/23 11:05:42;;;;;;;17.80;14.47;;;;;;;5.79;59.71;96723.06;5064318;28;20237;-73
2021/12/23 11:08:19;;;;;;;18.60;14.43;;;;;;;5.82;60.32;96720.22;5061610;28;20199;-71
2021/12/23 11:27:36;;;;;;;14.87;10.10;;;;;;;6.18;58.56;96686.97;5061639;28;20645;-73
2021/12/23 11:36:05;;;;;;;9.07;7.83;;;;;;;6.71;55.41;96681.09;5036955;28;20209;-72
2021/12/23 11:38:39;;;;;;;10.13;8.03;;;;;;;6.92;55.80;96668.91;5069726;28;20206;-73
2021/12/23 11:41:19;;;;;;;12.00;8.07;;;;;;;7.09;56.90;96674.63;5066838;28;20234;-72
2021/12/23 11:43:48;;;;;;;9.43;7.50;;;;;;;7.22;55.20;96662.22;5071922;28;20215;-72
2021/12/23 11:46:17;;;;;;;10.93;8.43;;;;;;;7.27;53.80;96652.97;5071536;28;20226;-72
2021/12/23 11:48:46;;;;;;;9.10;7.30;;;;;;;7.47;52.85;96654.84;5065444;28;20282;-73
2021/12/23 11:51:19;;;;;;;10.13;8.33;;;;;;;7.50;52.58;96666.94;5077094;28;20205;-71
2021/12/23 11:53:49;;;;;;;8.97;7.93;;;;;;;7.38;53.59;96650.31;5077136;28;20202;-72
2021/12/23 11:56:17;;;;;;;9.43;8.20;;;;;;;7.32;54.12;96655.25;5065457;28;20562;-72
2021/12/23 11:58:46;;;;;;;9.30;7.83;;;;;;;7.44;54.22;96664.78;5059386;28;20280;-71
2021/12/23 12:01:16;;;;;;;8.77;7.67;;;;;;;7.34;53.86;96654.16;5062926;28;20206;-72
2021/12/23 12:03:53;;;;;;;9.93;7.90;;;;;;;7.39;53.71;96649.38;5076688;28;20241;-72
2021/12/23 12:06:21;;;;;;;9.17;8.07;;;;;;;7.31;53.70;96635.16;5058838;28;20190;-71
2021/12/23 12:08:53;;;;;;;8.80;7.63;;;;;;;7.32;54.18;96631.56;5060239;28;20203;-73
2021/12/23 12:11:21;;;;;;;9.37;8.03;;;;;;;7.30;54.02;96628.22;5063695;28;20211;-73
2021/12/23 12:13:48;;;;;;;9.53;7.80;;;;;;;7.27;54.84;96644.25;5064746;28;20195;-71
2021/12/23 12:16:29;;;;;;;10.67;8.50;;;;;;;7.25;54.13;96638.28;5064835;28;20215;-73